KCBG

Cambridge Municipal Airport

Cambridge, Minnesota, USA
METAR KCBG 211255Z AUTO 00000KT 10SM M21/M26 A3051 RMK AO2
Observed Flight Rules
Feb-21 @ 12:55 UTC (23 minutes ago)
Wind Visibility
Calm 10 miles
Temperatures Readings
Current -21°C / -6°F
Dewpoint -26°C / -15°F
Humidity 64%
Altimeter 30.51" Hg
Pressure 1033 hPa
Elevation 287
METAR KCBG 211255Z AUTO 00000KT 10SM M21/M26 A3051 RMK AO2
Observed Flight Rules
Feb-21 @ 12:55 UTC
(23 minutes ago)
Wind Visibility
Calm 10 miles
Temperature Dewpoint
-21°C / -6°F -26°C / -15°F
Humidity Altimeter Pressure
64% 30.51" Hg 1033 hPa